Time;durP1;ratioP1;P1;durP2;ratioP2;P2;SDS_P1;SDS_P2;PMS_P1;PMS_P2;Temp;Humidity;BMP_temperature;BMP_pressure;BME280_temperature;BME280_humidity;BME280_pressure;Samples;Min_cycle;Max_cycle;Signal;HPM_P1;HPM_P2
2019/12/26 00:00:40;;;;;;;15.6;12.8;;;;;;;;;;;;;
2019/12/26 00:03:08;;;;;;;15.2;13;;;;;;;;;;;;;
2019/12/26 00:05:31;;;;;;;14.5;11.7;;;;;;;;;;;;;
2019/12/26 00:07:57;;;;;;;13.4;10.2;;;;;;;;;;;;;
2019/12/26 00:10:21;;;;;;;11.4;9;;;;;;;;;;;;;
2019/12/26 00:12:53;;;;;;;13.3;11;;;;;;;;;;;;;
2019/12/26 00:15:18;;;;;;;13.2;11;;;;;;;;;;;;;
2019/12/26 00:17:45;;;;;;;12.5;10.1;;;;;;;;;;;;;
2019/12/26 00:20:13;;;;;;;20.5;16.8;;;;;;;;;;;;;
2019/12/26 00:22:35;;;;;;;14.2;12;;;;;;;;;;;;;
2019/12/26 00:24:59;;;;;;;12.3;11;;;;;;;;;;;;;
2019/12/26 00:27:26;;;;;;;15.8;12.6;;;;;;;;;;;;;
2019/12/26 00:29:50;;;;;;;38.6;29.1;;;;;;;;;;;;;
2019/12/26 00:32:14;;;;;;;39;29.3;;;;;;;;;;;;;
2019/12/26 00:34:40;;;;;;;37.3;27;;;;;;;;;;;;;
2019/12/26 00:37:13;;;;;;;35.2;26.8;;;;;;;;;;;;;
2019/12/26 00:39:31;;;;;;;30.4;23.8;;;;;;;;;;;;;
2019/12/26 00:41:55;;;;;;;29.2;21.3;;;;;;;;;;;;;
2019/12/26 00:44:20;;;;;;;25.3;19.4;;;;;;;;;;;;;
2019/12/26 00:46:47;;;;;;;10.8;7.6;;;;;;;;;;;;;
2019/12/26 00:49:14;;;;;;;7.1;5.5;;;;;;;;;;;;;
2019/12/26 00:51:39;;;;;;;8.1;6.6;;;;;;;;;;;;;
2019/12/26 00:54:07;;;;;;;6.7;5.5;;;;;;;;;;;;;
2019/12/26 00:56:34;;;;;;;7;5.3;;;;;;;;;;;;;
2019/12/26 00:58:57;;;;;;;7.6;5.9;;;;;;;;;;;;;
2019/12/26 01:01:23;;;;;;;6.8;5.7;;;;;;;;;;;;;
2019/12/26 01:03:46;;;;;;;8.9;6.4;;;;;;;;;;;;;
2019/12/26 01:06:16;;;;;;;9.6;7.4;;;;;;;;;;;;;
2019/12/26 01:08:37;;;;;;;8;7.2;;;;;;;;;;;;;
2019/12/26 01:11:01;;;;;;;8.1;6.9;;;;;;;;;;;;;
2019/12/26 01:13:29;;;;;;;8.6;7.5;;;;;;;;;;;;;
2019/12/26 01:15:55;;;;;;;12.6;10.4;;;;;;;;;;;;;
2019/12/26 01:18:19;;;;;;;12.9;9.8;;;;;;;;;;;;;
2019/12/26 01:20:43;;;;;;;14.7;10.9;;;;;;;;;;;;;
2019/12/26 01:23:09;;;;;;;18.1;11.4;;;;;;;;;;;;;
2019/12/26 01:25:34;;;;;;;17.4;12.2;;;;;;;;;;;;;
2019/12/26 01:27:59;;;;;;;29.5;16.3;;;;;;;;;;;;;
2019/12/26 01:30:28;;;;;;;9.7;8.5;;;;;;;;;;;;;
2019/12/26 01:32:53;;;;;;;9.6;6.7;;;;;;;;;;;;;
2019/12/26 01:35:17;;;;;;;7;4.5;;;;;;;;;;;;;
2019/12/26 01:37:41;;;;;;;4.8;3.2;;;;;;;;;;;;;
2019/12/26 01:40:07;;;;;;;4.1;3.6;;;;;;;;;;;;;
2019/12/26 01:42:33;;;;;;;122.4;20.6;;;;;;;;;;;;;
2019/12/26 01:44:59;;;;;;;183;25.8;;;;;;;;;;;;;
2019/12/26 01:47:24;;;;;;;47.8;23.8;;;;;;;;;;;;;
2019/12/26 01:49:52;;;;;;;109.7;25.5;;;;;;;;;;;;;
2019/12/26 01:52:14;;;;;;;34.1;21.8;;;;;;;;;;;;;
2019/12/26 01:54:42;;;;;;;60.5;23.6;;;;;;;;;;;;;
2019/12/26 01:57:05;;;;;;;39.7;24;;;;;;;;;;;;;
2019/12/26 01:59:31;;;;;;;38.4;22.2;;;;;;;;;;;;;
2019/12/26 02:01:57;;;;;;;7.4;5.8;;;;;;;;;;;;;
2019/12/26 02:04:20;;;;;;;4.7;4.2;;;;;;;;;;;;;
2019/12/26 02:06:52;;;;;;;36.4;9.7;;;;;;;;;;;;;
2019/12/26 02:09:18;;;;;;;97.4;13.4;;;;;;;;;;;;;
2019/12/26 02:11:41;;;;;;;43.8;11.2;;;;;;;;;;;;;
2019/12/26 02:14:13;;;;;;;72.1;13.2;;;;;;;;;;;;;
2019/12/26 02:16:44;;;;;;;107.1;15.2;;;;;;;;;;;;;
2019/12/26 02:19:10;;;;;;;147.4;17.5;;;;;;;;;;;;;
2019/12/26 02:21:40;;;;;;;129.2;16.8;;;;;;;;;;;;;
2019/12/26 02:24:05;;;;;;;133.5;18.1;;;;;;;;;;;;;
2019/12/26 02:26:25;;;;;;;370.8;31.9;;;;;;;;;;;;;
2019/12/26 02:28:51;;;;;;;104.9;21.8;;;;;;;;;;;;;
2019/12/26 02:31:17;;;;;;;54.9;19.4;;;;;;;;;;;;;
2019/12/26 02:33:41;;;;;;;35.2;20.5;;;;;;;;;;;;;
2019/12/26 02:36:07;;;;;;;27.9;19.5;;;;;;;;;;;;;
2019/12/26 02:38:32;;;;;;;24.1;18.4;;;;;;;;;;;;;
2019/12/26 02:41:00;;;;;;;22;17.7;;;;;;;;;;;;;
2019/12/26 02:43:26;;;;;;;22.2;17.8;;;;;;;;;;;;;
2019/12/26 02:45:48;;;;;;;19.9;16.9;;;;;;;;;;;;;
2019/12/26 02:48:13;;;;;;;19;16.2;;;;;;;;;;;;;
2019/12/26 02:50:39;;;;;;;19.5;16.4;;;;;;;;;;;;;
2019/12/26 02:53:05;;;;;;;21.7;17.3;;;;;;;;;;;;;
2019/12/26 02:55:29;;;;;;;21.1;17.4;;;;;;;;;;;;;
2019/12/26 02:57:54;;;;;;;19.3;17;;;;;;;;;;;;;
2019/12/26 03:00:20;;;;;;;20.5;17.4;;;;;;;;;;;;;
2019/12/26 03:02:45;;;;;;;18.1;16.2;;;;;;;;;;;;;
2019/12/26 03:05:10;;;;;;;19.2;17.1;;;;;;;;;;;;;
2019/12/26 03:07:37;;;;;;;19.6;17.5;;;;;;;;;;;;;
2019/12/26 03:10:01;;;;;;;20;17.7;;;;;;;;;;;;;
2019/12/26 03:12:26;;;;;;;19.9;17.3;;;;;;;;;;;;;
2019/12/26 03:15:50;;;;;;;18.1;15.4;;;;;;;;;;;;;
2019/12/26 03:18:17;;;;;;;17.6;15.6;;;;;;;;;;;;;
2019/12/26 03:20:50;;;;;;;18.3;16;;;;;;;;;;;;;
2019/12/26 03:23:09;;;;;;;18.5;16.1;;;;;;;;;;;;;
2019/12/26 03:25:34;;;;;;;17.5;15.1;;;;;;;;;;;;;
2019/12/26 03:28:02;;;;;;;18.5;16.2;;;;;;;;;;;;;
2019/12/26 03:30:26;;;;;;;21.9;18.2;;;;;;;;;;;;;
2019/12/26 03:32:52;;;;;;;23.3;18.7;;;;;;;;;;;;;
2019/12/26 03:35:16;;;;;;;32.3;21.6;;;;;;;;;;;;;
2019/12/26 03:37:47;;;;;;;33.4;22.7;;;;;;;;;;;;;
2019/12/26 03:40:11;;;;;;;27;19.9;;;;;;;;;;;;;
2019/12/26 03:42:39;;;;;;;36.2;29.2;;;;;;;;;;;;;
2019/12/26 03:45:05;;;;;;;29.8;24.8;;;;;;;;;;;;;
2019/12/26 03:47:32;;;;;;;27.6;21.2;;;;;;;;;;;;;
2019/12/26 03:49:58;;;;;;;28.6;20.7;;;;;;;;;;;;;
2019/12/26 03:52:23;;;;;;;23.8;18.6;;;;;;;;;;;;;
2019/12/26 03:54:47;;;;;;;23;17.8;;;;;;;;;;;;;
2019/12/26 03:57:11;;;;;;;20.5;16.9;;;;;;;;;;;;;
2019/12/26 03:59:36;;;;;;;18.3;15.1;;;;;;;;;;;;;
2019/12/26 04:02:38;;;;;;;18.7;15.3;;;;;;;3.85;86.75684;944.7834;;;;
2019/12/26 04:05:02;;;;;;;23.3;17.2;;;;;;;3.89;87.14844;944.7852;;;;
2019/12/26 04:07:33;;;;;;;23.3;17.4;;;;;;;3.97;86.91992;944.738;;;;
2019/12/26 04:10:00;;;;;;;17;14.5;;;;;;;3.99;85.86426;944.7827;;;;
2019/12/26 04:12:25;;;;;;;18.2;14.7;;;;;;;3.94;86.41797;944.7523;;;;
2019/12/26 04:14:50;;;;;;;17.8;14.4;;;;;;;3.92;86.32422;944.7042;;;;
2019/12/26 04:17:16;;;;;;;18.6;14.7;;;;;;;3.94;86.39551;944.7319;;;;
2019/12/26 04:19:49;;;;;;;16.1;14.3;;;;;;;3.87;86.31348;944.6814;;;;
2019/12/26 04:22:18;;;;;;;18.2;15.6;;;;;;;3.83;86.7666;944.6983;;;;
2019/12/26 04:24:46;;;;;;;20.4;16.3;;;;;;;3.87;86.9873;944.7003;;;;
2019/12/26 04:27:11;;;;;;;22.1;17.6;;;;;;;3.96;86.80371;944.6906;;;;
2019/12/26 04:29:37;;;;;;;24.8;18.8;;;;;;;4.05;86.31445;944.7871;;;;
2019/12/26 04:32:05;;;;;;;23;18.2;;;;;;;3.97;85.78223;944.803;;;;
2019/12/26 04:34:44;;;;;;;23.2;17.9;;;;;;;3.89;86.40625;944.7341;;;;
2019/12/26 04:37:14;;;;;;;21.5;17.3;;;;;;;3.87;86.38086;944.8381;;;;
2019/12/26 04:39:31;;;;;;;21.7;17.4;;;;;;;3.85;86.47852;944.8695;;;;
2019/12/26 04:41:59;;;;;;;23.4;18;;;;;;;3.88;86.72168;944.8149;;;;
2019/12/26 04:44:23;;;;;;;22;17.4;;;;;;;3.93;86.26758;944.7902;;;;
2019/12/26 04:46:47;;;;;;;23;18;;;;;;;4;86.22852;944.8415;;;;
2019/12/26 04:49:20;;;;;;;19.1;16.4;;;;;;;4.07;85.71387;944.8522;;;;
2019/12/26 04:51:45;;;;;;;23.2;17.6;;;;;;;4.06;86.26172;944.8375;;;;
2019/12/26 04:54:12;;;;;;;21.7;17.3;;;;;;;4.1;86.52734;944.8098;;;;
2019/12/26 04:56:35;;;;;;;22.9;17.2;;;;;;;4.15;85.99902;944.7916;;;;
2019/12/26 04:59:07;;;;;;;20.5;16.8;;;;;;;4.02;86.07227;944.8236;;;;
2019/12/26 05:01:34;;;;;;;21.4;16.7;;;;;;;4;86.32715;944.805;;;;
2019/12/26 05:04:05;;;;;;;25.6;18.4;;;;;;;4.02;86.99609;944.8089;;;;
2019/12/26 05:06:31;;;;;;;23.5;18.1;;;;;;;4.09;86.40234;944.7967;;;;
2019/12/26 05:08:59;;;;;;;20.6;16.8;;;;;;;4.13;86.0625;944.8176;;;;
2019/12/26 05:11:26;;;;;;;25;18.7;;;;;;;4.09;85.95215;944.8393;;;;
2019/12/26 05:13:55;;;;;;;24.7;18.6;;;;;;;4.13;86.40039;944.8452;;;;
2019/12/26 05:16:22;;;;;;;25.4;18.7;;;;;;;4.18;85.84863;944.9081;;;;
2019/12/26 05:18:46;;;;;;;26.9;19.5;;;;;;;4.19;85.72656;944.8958;;;;
2019/12/26 05:21:16;;;;;;;24;18.6;;;;;;;4.18;85.91602;944.9146;;;;
2019/12/26 05:23:40;;;;;;;23;17.1;;;;;;;4.21;85.65137;944.8765;;;;
2019/12/26 05:26:10;;;;;;;21.4;17.7;;;;;;;4.15;85.71777;944.8895;;;;
2019/12/26 05:28:39;;;;;;;23;17.7;;;;;;;4.14;85.74902;944.8828;;;;
2019/12/26 05:31:10;;;;;;;20.3;17.2;;;;;;;4.1;85.64063;944.8731;;;;
2019/12/26 05:33:41;;;;;;;20.3;16.9;;;;;;;4.02;86.15332;944.9247;;;;
2019/12/26 05:36:11;;;;;;;19.8;16.3;;;;;;;3.97;86.1416;944.9498;;;;
2019/12/26 05:38:34;;;;;;;20;16.3;;;;;;;3.96;86.16309;944.9587;;;;
2019/12/26 05:40:58;;;;;;;18.8;15.6;;;;;;;3.91;86.49121;944.8872;;;;
2019/12/26 05:43:28;;;;;;;17.8;15.3;;;;;;;3.84;86.73438;944.9652;;;;
2019/12/26 05:45:54;;;;;;;16.2;14.3;;;;;;;3.79;87.09668;944.9667;;;;
2019/12/26 05:48:21;;;;;;;17.3;14.9;;;;;;;3.85;87.16406;944.8876;;;;
2019/12/26 05:50:47;;;;;;;18.4;15.4;;;;;;;3.93;87.33789;944.8732;;;;
2019/12/26 05:53:13;;;;;;;18.8;15.7;;;;;;;4;86.47559;944.7921;;;;
2019/12/26 05:55:53;;;;;;;14.5;13;;;;;;;4.03;85.98633;944.8359;;;;
2019/12/26 05:58:17;;;;;;;15.2;13.6;;;;;;;4.1;85.60742;944.9283;;;;
2019/12/26 06:00:45;;;;;;;13.9;12.4;;;;;;;4.09;85.51367;944.7576;;;;
2019/12/26 06:03:19;;;;;;;13.2;11.8;;;;;;;4.02;85.36621;944.842;;;;
2019/12/26 06:05:45;;;;;;;13.9;11.7;;;;;;;4.04;85.51563;944.8323;;;;
2019/12/26 06:08:09;;;;;;;11.9;10.7;;;;;;;4.1;85.38184;944.885;;;;
2019/12/26 06:10:40;;;;;;;9.8;8.6;;;;;;;4.17;84.68652;944.8589;;;;
2019/12/26 06:13:08;;;;;;;8.6;7.4;;;;;;;4.2;84.1416;944.9034;;;;
2019/12/26 06:15:40;;;;;;;9.6;8.5;;;;;;;4.26;84.67188;944.89;;;;
2019/12/26 06:18:10;;;;;;;5.3;4.6;;;;;;;4.22;83.54883;944.9394;;;;
2019/12/26 06:20:40;;;;;;;2.2;1.6;;;;;;;3.86;79.44238;944.9205;;;;
2019/12/26 06:23:08;;;;;;;3.2;2.8;;;;;;;3.72;82.59766;944.9398;;;;
2019/12/26 06:25:38;;;;;;;2.7;2.3;;;;;;;3.82;82.14355;944.9208;;;;
2019/12/26 06:28:07;;;;;;;2.8;1.7;;;;;;;3.86;81.9043;944.8469;;;;
2019/12/26 06:33:07;;;;;;;2.6;1.8;;;;;;;3.89;81.29199;944.8908;;;;
2019/12/26 06:35:35;;;;;;;2.5;2;;;;;;;3.81;81.70313;944.962;;;;
2019/12/26 06:38:03;;;;;;;1.9;1.5;;;;;;;3.81;80.74805;944.8694;;;;
2019/12/26 06:40:33;;;;;;;1.9;1.4;;;;;;;3.83;81.22461;944.9819;;;;
2019/12/26 06:43:05;;;;;;;2.4;1.5;;;;;;;3.88;80.49121;944.9108;;;;
2019/12/26 06:45:35;;;;;;;2;1.2;;;;;;;3.97;81.64453;944.8653;;;;
2019/12/26 06:48:03;;;;;;;2.6;1.3;;;;;;;4.03;80.30859;944.9575;;;;
2019/12/26 06:50:35;;;;;;;1.8;1.2;;;;;;;3.98;80.72559;944.877;;;;
2019/12/26 06:53:06;;;;;;;2.6;1.4;;;;;;;3.75;81.25488;944.8354;;;;
2019/12/26 06:55:36;;;;;;;2.1;1.2;;;;;;;3.69;81.28516;944.8349;;;;
2019/12/26 06:58:04;;;;;;;2.4;1.5;;;;;;;3.71;82.3916;944.9133;;;;
2019/12/26 07:00:29;;;;;;;2.9;2.6;;;;;;;3.57;84.58789;944.9166;;;;
2019/12/26 07:03:12;;;;;;;3;2.7;;;;;;;3.61;84.67773;944.9387;;;;
2019/12/26 07:05:39;;;;;;;5.4;3.1;;;;;;;3.77;85.60742;944.9318;;;;
2019/12/26 07:08:16;;;;;;;3.6;2.8;;;;;;;3.85;85.23047;944.9758;;;;
2019/12/26 07:10:44;;;;;;;5.5;4.9;;;;;;;3.93;85.26855;944.9849;;;;
2019/12/26 07:13:11;;;;;;;5.7;4.8;;;;;;;3.98;85.19922;944.939;;;;
2019/12/26 07:15:36;;;;;;;5;3.5;;;;;;;3.97;84.44434;944.9646;;;;
2019/12/26 07:18:04;;;;;;;5.2;3.8;;;;;;;3.87;84.93066;945.0076;;;;
2019/12/26 07:20:30;;;;;;;8.6;7.7;;;;;;;3.77;84.90918;944.9945;;;;
2019/12/26 07:23:02;;;;;;;19.2;17.4;;;;;;;3.58;81.70508;944.9526;;;;
2019/12/26 07:25:27;;;;;;;32.2;29.2;;;;;;;3.55;81.66406;944.9581;;;;
2019/12/26 07:27:58;;;;;;;13.4;12;;;;;;;3.57;79.97266;944.9782;;;;
2019/12/26 07:30:22;;;;;;;17.4;15.6;;;;;;;3.61;82.49609;944.9281;;;;
2019/12/26 07:32:58;;;;;;;3.7;3.1;;;;;;;3.54;80.12305;944.8773;;;;
2019/12/26 07:35:24;;;;;;;21.3;18.8;;;;;;;3.42;80.63086;944.9453;;;;
2019/12/26 07:37:51;;;;;;;40.9;34;;;;;;;3.43;80.76563;944.9458;;;;
2019/12/26 07:40:20;;;;;;;18.3;15.5;;;;;;;3.45;79.97363;944.9665;;;;
2019/12/26 07:42:47;;;;;;;13.7;6.9;;;;;;;3.46;82.65918;944.8984;;;;
2019/12/26 07:45:20;;;;;;;14;8.4;;;;;;;3.14;79.89355;944.9197;;;;
2019/12/26 07:47:53;;;;;;;20.5;14.7;;;;;;;3.22;81.53418;944.9093;;;;
2019/12/26 07:50:30;;;;;;;7.5;5.1;;;;;;;3.21;80.0957;944.8933;;;;
2019/12/26 07:53:03;;;;;;;18.2;15.5;;;;;;;3.39;80.18652;944.9208;;;;
2019/12/26 07:55:16;;;;;;;15.2;13.2;;;;;;;3.63;81.73633;944.9592;;;;
2019/12/26 07:57:53;;;;;;;6.6;5.6;;;;;;;3.83;80.73047;944.9261;;;;
2019/12/26 08:00:45;;;;;;;173.6;116.1;;;;;;;3.81;77.88184;944.9339;;;;
2019/12/26 08:02:58;;;;;;;5.3;4.2;;;;;;;3.61;78.35254;944.9561;;;;
2019/12/26 08:05:28;;;;;;;6.9;6.3;;;;;;;3.52;78.49316;944.9216;;;;
2019/12/26 08:07:59;;;;;;;2;1.5;;;;;;;3.53;78.2793;944.9739;;;;
2019/12/26 08:10:25;;;;;;;2.8;2.3;;;;;;;3.7;79.64844;944.9969;;;;
2019/12/26 08:12:54;;;;;;;2.4;2.2;;;;;;;3.62;78.29785;945.007;;;;
2019/12/26 08:18:03;;;;;;;3.1;2.5;;;;;;;3.65;80.5498;944.9861;;;;
2019/12/26 08:20:25;;;;;;;3.3;2.5;;;;;;;3.6;80.24805;945.0134;;;;
2019/12/26 08:22:55;;;;;;;4.1;2.9;;;;;;;3.77;80.73926;945.0528;;;;
2019/12/26 08:25:31;;;;;;;3.8;2.8;;;;;;;3.55;79.47559;944.989;;;;
2019/12/26 08:27:57;;;;;;;5.9;3.9;;;;;;;3.31;80.4834;945.0789;;;;
2019/12/26 08:30:34;;;;;;;8;5.4;;;;;;;3.24;81.81836;945.063;;;;
2019/12/26 08:33:17;;;;;;;4.8;4;;;;;;;3.49;81.37305;944.9871;;;;
2019/12/26 08:35:43;;;;;;;4.7;3.4;;;;;;;3.22;80.81641;945.0647;;;;
2019/12/26 08:38:18;;;;;;;4.2;2.6;;;;;;;3.01;80.65137;945.1114;;;;
2019/12/26 08:40:43;;;;;;;2.8;2.2;;;;;;;2.81;80.83789;944.9842;;;;
2019/12/26 08:43:25;;;;;;;3.3;2.3;;;;;;;2.73;81.4541;945.0039;;;;
2019/12/26 08:45:57;;;;;;;6.5;3.7;;;;;;;2.99;81.22168;945.0309;;;;
2019/12/26 08:48:27;;;;;;;4.2;3.5;;;;;;;3.27;81.24121;944.9749;;;;
2019/12/26 08:51:07;;;;;;;4.3;3.3;;;;;;;3.53;80.07715;945.0031;;;;
2019/12/26 08:53:41;;;;;;;4.7;2.7;;;;;;;3.58;78.12109;944.9942;;;;
2019/12/26 08:56:23;;;;;;;4.7;2.7;;;;;;;3.56;77.9834;944.9913;;;;
2019/12/26 08:58:50;;;;;;;5.4;4.2;;;;;;;3.58;78.75;945.0164;;;;
2019/12/26 09:01:26;;;;;;;3.2;1.9;;;;;;;3.73;75.86816;944.9598;;;;
2019/12/26 09:04:23;;;;;;;4.5;3.1;;;;;;;3.7;77.21191;944.8791;;;;
2019/12/26 09:06:45;;;;;;;3.7;3;;;;;;;3.82;76.45703;944.9233;;;;
2019/12/26 09:09:14;;;;;;;3.1;2.3;;;;;;;3.89;76.16504;944.9263;;;;
2019/12/26 09:11:39;;;;;;;2.3;1.1;;;;;;;3.45;76.16602;944.9019;;;;
2019/12/26 09:14:20;;;;;;;3;1.5;;;;;;;3.66;77.16797;944.7589;;;;
2019/12/26 09:16:57;;;;;;;1.5;1.3;;;;;;;3.9;77.40527;944.7969;;;;
2019/12/26 09:19:25;;;;;;;1.8;1;;;;;;;3.96;76.30176;944.8233;;;;
2019/12/26 09:21:51;;;;;;;1.5;1.1;;;;;;;3.86;76.22754;944.85;;;;
2019/12/26 09:24:33;;;;;;;1.7;1.1;;;;;;;3.62;74.15234;944.9053;;;;
2019/12/26 09:27:07;;;;;;;9.8;9;;;;;;;3.23;75.19238;944.7918;;;;
2019/12/26 09:29:38;;;;;;;1.8;1.4;;;;;;;3.31;76.95801;944.8301;;;;
2019/12/26 09:32:04;;;;;;;1.4;1.1;;;;;;;3.48;76.02539;944.8183;;;;
2019/12/26 09:34:40;;;;;;;2.4;1.5;;;;;;;3.71;75.08789;944.7305;;;;
2019/12/26 09:37:06;;;;;;;1.3;1.1;;;;;;;3.38;75.09766;944.7645;;;;
2019/12/26 09:39:49;;;;;;;2.1;1.6;;;;;;;3.37;76.14063;944.7316;;;;
2019/12/26 09:42:13;;;;;;;3.5;2.3;;;;;;;3.54;77.26074;944.7162;;;;
2019/12/26 09:44:42;;;;;;;3.5;2.3;;;;;;;3.71;75.77344;944.6975;;;;
2019/12/26 09:47:20;;;;;;;3.7;3.2;;;;;;;3.88;76.85059;944.7015;;;;
2019/12/26 09:49:50;;;;;;;1.5;1.2;;;;;;;3.76;74.63672;944.6487;;;;
2019/12/26 09:52:24;;;;;;;1.6;0.9;;;;;;;3.87;76.49902;944.7224;;;;
2019/12/26 09:54:48;;;;;;;1.8;0.9;;;;;;;4.01;75.87305;944.6375;;;;
2019/12/26 09:57:18;;;;;;;1.9;1.1;;;;;;;3.83;77.33594;944.6057;;;;
2019/12/26 09:59:44;;;;;;;1.8;0.9;;;;;;;3.79;75.96777;944.6113;;;;
2019/12/26 10:02:17;;;;;;;1.3;1;;;;;;;3.9;73.34473;944.5856;;;;
2019/12/26 10:04:49;;;;;;;1.8;1.1;;;;;;;4.2;73.84668;944.5075;;;;
2019/12/26 10:07:16;;;;;;;2.6;1.2;;;;;;;4.17;72.96387;944.498;;;;
2019/12/26 10:09:44;;;;;;;3;1.1;;;;;;;4.31;73.42773;944.419;;;;
2019/12/26 10:12:07;;;;;;;1.9;1.2;;;;;;;4.4;72.05859;944.3771;;;;
2019/12/26 10:14:39;;;;;;;1.2;1;;;;;;;4.53;74.1748;944.337;;;;
2019/12/26 10:17:13;;;;;;;1.2;1;;;;;;;4.42;71.99414;944.3411;;;;
2019/12/26 10:19:42;;;;;;;1.3;0.9;;;;;;;4.63;72.66016;944.2548;;;;
2019/12/26 10:22:15;;;;;;;19;12.8;;;;;;;4.65;73.6543;944.2241;;;;
2019/12/26 10:24:39;;;;;;;2.5;1.5;;;;;;;4.49;70.58789;944.1731;;;;
2019/12/26 10:27:08;;;;;;;2.8;1.5;;;;;;;4.61;71.56445;944.1886;;;;
2019/12/26 10:29:35;;;;;;;1.3;0.8;;;;;;;4.64;70.9834;944.1344;;;;
2019/12/26 10:32:07;;;;;;;14.6;8.5;;;;;;;4.72;71.31348;944.1007;;;;
2019/12/26 10:34:41;;;;;;;4.6;2.3;;;;;;;4.77;68.03223;944.1075;;;;
2019/12/26 10:37:14;;;;;;;3.6;1.4;;;;;;;4.6;69.55859;943.981;;;;
2019/12/26 10:39:48;;;;;;;313.2;170.6;;;;;;;4.6;71.25879;944.022;;;;
2019/12/26 10:42:20;;;;;;;4.4;1.7;;;;;;;4.73;70.58203;944.0302;;;;
2019/12/26 10:44:52;;;;;;;14.3;7.4;;;;;;;4.91;70.2959;943.9728;;;;
2019/12/26 10:47:25;;;;;;;2.9;2;;;;;;;4.72;68.44141;943.9596;;;;
2019/12/26 10:49:50;;;;;;;24.6;13.2;;;;;;;4.53;69.2207;943.9498;;;;
2019/12/26 10:52:26;;;;;;;127.7;68.9;;;;;;;4.38;70.85156;943.9189;;;;
2019/12/26 10:54:59;;;;;;;3.3;1.6;;;;;;;4.36;72.1416;943.8668;;;;
2019/12/26 10:57:25;;;;;;;44.9;22.3;;;;;;;4.39;69.55859;943.9084;;;;
2019/12/26 10:59:48;;;;;;;46.8;23.2;;;;;;;4.36;68.54004;943.8747;;;;
2019/12/26 11:02:21;;;;;;;150.6;78.3;;;;;;;4.22;68.20117;943.8726;;;;
2019/12/26 11:04:46;;;;;;;3;1.7;;;;;;;4.24;70.45605;943.8995;;;;
2019/12/26 11:07:18;;;;;;;2.5;1.3;;;;;;;4.4;69.64844;943.8606;;;;
2019/12/26 11:09:42;;;;;;;28.7;12.8;;;;;;;4.68;71.0459;943.8158;;;;
2019/12/26 11:12:15;;;;;;;32.5;13.6;;;;;;;4.79;70.75;943.8102;;;;
2019/12/26 11:14:48;;;;;;;3.8;1.8;;;;;;;4.82;67.34082;943.7925;;;;
2019/12/26 11:17:25;;;;;;;99.3;42.8;;;;;;;5.04;67.95117;943.7573;;;;
2019/12/26 11:19:59;;;;;;;17.3;7;;;;;;;4.93;65.9375;943.7542;;;;
2019/12/26 11:22:28;;;;;;;125;54.6;;;;;;;5.02;68.75879;943.6885;;;;
2019/12/26 11:24:54;;;;;;;591.8;282.9;;;;;;;5.16;65.92871;943.6664;;;;
2019/12/26 11:27:24;;;;;;;48.8;20.4;;;;;;;5.24;65.55762;943.6516;;;;
2019/12/26 11:29:45;;;;;;;394.9;168.5;;;;;;;5.29;66.39941;943.5879;;;;
2019/12/26 11:32:16;;;;;;;3;1.6;;;;;;;5.29;65.45215;943.5989;;;;
2019/12/26 11:35:00;;;;;;;7.7;3.6;;;;;;;5.06;64.67383;943.5142;;;;
2019/12/26 11:37:39;;;;;;;9.1;4.1;;;;;;;4.86;63.59375;943.5069;;;;
2019/12/26 11:39:56;;;;;;;71.8;30.2;;;;;;;4.98;68.25684;943.4289;;;;
2019/12/26 11:42:28;;;;;;;3.4;1.9;;;;;;;5.13;67.37793;943.4441;;;;
2019/12/26 11:44:54;;;;;;;33.2;13;;;;;;;5.18;69.29395;943.4028;;;;
2019/12/26 11:47:27;;;;;;;5.9;2.8;;;;;;;5.22;69.68164;943.3459;;;;
2019/12/26 11:49:58;;;;;;;1.8;1.2;;;;;;;5.1;67.91602;943.2853;;;;
2019/12/26 11:52:24;;;;;;;2.2;1.3;;;;;;;5.01;68.94824;943.247;;;;
2019/12/26 11:54:55;;;;;;;4.3;2;;;;;;;4.9;70.5332;943.1875;;;;
2019/12/26 11:57:28;;;;;;;2;0.8;;;;;;;4.66;69.84863;943.0578;;;;
2019/12/26 12:00:14;;;;;;;404.9;206.6;;;;;;;4.78;71.00586;943.097;;;;
2019/12/26 12:02:38;;;;;;;5.1;2.9;;;;;;;4.94;70.44824;943.0959;;;;
2019/12/26 12:05:06;;;;;;;3.6;1.9;;;;;;;4.85;69.65625;943.0795;;;;
2019/12/26 12:07:42;;;;;;;18.6;9.4;;;;;;;4.95;72.06152;943.0125;;;;
2019/12/26 12:10:23;;;;;;;12.4;6.5;;;;;;;5.09;71.1377;943.0875;;;;
2019/12/26 12:12:57;;;;;;;3.9;2;;;;;;;5.07;69.89258;943.074;;;;
2019/12/26 12:15:31;;;;;;;44;22.6;;;;;;;5.17;71.85059;942.9761;;;;
2019/12/26 12:18:30;;;;;;;29.1;15.9;;;;;;;5.38;70.23926;943.0094;;;;
2019/12/26 12:20:23;;;;;;;3.2;1.9;;;;;;;5.49;69.50098;943.009;;;;
2019/12/26 12:22:56;;;;;;;74.1;53;;;;;;;5.5;68.71289;943.0132;;;;
2019/12/26 12:25:24;;;;;;;12.1;9.9;;;;;;;5.53;67.70117;942.9953;;;;
2019/12/26 12:27:53;;;;;;;4.2;2.6;;;;;;;5.67;67.14746;942.9302;;;;
2019/12/26 12:30:24;;;;;;;2.9;1.7;;;;;;;5.47;63.41504;942.9252;;;;
2019/12/26 12:32:52;;;;;;;5.3;2.1;;;;;;;5.57;62.75391;942.8767;;;;
2019/12/26 12:35:37;;;;;;;2.4;1.3;;;;;;;5.57;62.04297;942.872;;;;
2019/12/26 12:37:52;;;;;;;3.7;1.1;;;;;;;5.72;63.63281;942.8188;;;;
2019/12/26 12:40:14;;;;;;;2.9;1.1;;;;;;;5.85;65.00684;942.7802;;;;
2019/12/26 12:42:41;;;;;;;2;1.3;;;;;;;6.01;64.51074;942.7139;;;;
2019/12/26 12:45:19;;;;;;;2.8;1.4;;;;;;;5.75;61.79688;942.7347;;;;
2019/12/26 12:47:44;;;;;;;4.6;1.8;;;;;;;5.87;65.51953;942.7455;;;;
2019/12/26 12:50:09;;;;;;;2.9;1.4;;;;;;;5.98;63.8291;942.7075;;;;
2019/12/26 12:52:37;;;;;;;2.8;1.8;;;;;;;5.95;64.54883;942.7375;;;;
2019/12/26 12:54:59;;;;;;;3.6;1.6;;;;;;;6.02;63.68848;942.6925;;;;
2019/12/26 12:57:25;;;;;;;3.8;1.7;;;;;;;6.13;63.97559;942.7137;;;;
2019/12/26 12:59:51;;;;;;;5.6;1.5;;;;;;;6.21;64.9248;942.7078;;;;
2019/12/26 13:02:21;;;;;;;3.1;1.4;;;;;;;6.29;63.59375;942.7452;;;;
2019/12/26 13:04:53;;;;;;;1.7;1.1;;;;;;;6.46;62.2168;942.7842;;;;
2019/12/26 13:07:17;;;;;;;4.5;1.4;;;;;;;6.62;62.28516;942.7739;;;;
2019/12/26 13:09:51;;;;;;;2.8;1.2;;;;;;;6.65;60.49121;942.7431;;;;
2019/12/26 13:12:19;;;;;;;2.4;1.1;;;;;;;6.65;61.99414;942.7484;;;;
2019/12/26 13:14:44;;;;;;;2.2;0.9;;;;;;;6.67;60.11816;942.6685;;;;
2019/12/26 13:17:10;;;;;;;2.3;0.9;;;;;;;6.76;61.33203;942.7567;;;;
2019/12/26 13:19:38;;;;;;;6.2;1.5;;;;;;;6.94;61.84473;942.6018;;;;
2019/12/26 13:22:02;;;;;;;3.2;1.1;;;;;;;7.02;61.65234;942.6448;;;;
2019/12/26 13:24:26;;;;;;;8.9;2.9;;;;;;;7.21;61.86035;942.5358;;;;
2019/12/26 13:27:09;;;;;;;4.3;2.4;;;;;;;7.17;61.94629;942.5865;;;;
2019/12/26 13:29:24;;;;;;;3.9;2.5;;;;;;;7.31;61.04883;942.5959;;;;
2019/12/26 13:31:53;;;;;;;5.7;3.1;;;;;;;7.6;58.88965;942.5408;;;;
2019/12/26 13:34:34;;;;;;;5.3;3;;;;;;;8.77;57.18457;942.5007;;;;
2019/12/26 13:36:49;;;;;;;6.2;3.1;;;;;;;10.3;52.64063;942.4216;;;;
2019/12/26 13:39:14;;;;;;;5.1;2.7;;;;;;;10.93;49.65527;942.2932;;;;
2019/12/26 13:41:44;;;;;;;5.1;2.5;;;;;;;10.99;49.46777;942.3633;;;;
2019/12/26 13:44:25;;;;;;;4.2;2;;;;;;;10.59;48.4502;942.3408;;;;
2019/12/26 13:46:50;;;;;;;6;3.5;;;;;;;9.7;51.30273;942.4153;;;;
2019/12/26 13:49:16;;;;;;;5.2;2.7;;;;;;;8.54;52.73438;942.4142;;;;
2019/12/26 13:51:49;;;;;;;4.4;2.3;;;;;;;7.32;55.81348;942.3972;;;;
2019/12/26 13:54:16;;;;;;;4;1.6;;;;;;;6.5;56.64648;942.4494;;;;
2019/12/26 13:56:42;;;;;;;5.6;2.1;;;;;;;6.18;60.52539;942.4465;;;;
2019/12/26 13:59:16;;;;;;;4.8;2.2;;;;;;;6.48;62.08301;942.4425;;;;
2019/12/26 14:01:36;;;;;;;5.9;2.4;;;;;;;6.52;61.625;942.4594;;;;
2019/12/26 14:03:59;;;;;;;4.6;2.5;;;;;;;6.6;61.11621;942.4697;;;;
2019/12/26 14:06:25;;;;;;;7.4;2.5;;;;;;;6.42;60.6377;942.4847;;;;
2019/12/26 14:08:54;;;;;;;7.8;2.4;;;;;;;6.11;61.66797;942.5262;;;;
2019/12/26 14:11:19;;;;;;;6.8;2.3;;;;;;;5.84;62.10449;942.633;;;;
2019/12/26 14:13:46;;;;;;;7.9;2.3;;;;;;;6.08;63.92285;942.704;;;;
2019/12/26 14:16:15;;;;;;;5.8;2.2;;;;;;;5.99;62.65527;942.6816;;;;
2019/12/26 14:18:42;;;;;;;3.3;2.5;;;;;;;5.92;62.52148;942.7255;;;;
2019/12/26 14:21:10;;;;;;;5;2.8;;;;;;;5.92;63.66309;942.7101;;;;
2019/12/26 14:23:30;;;;;;;6.6;3.6;;;;;;;5.94;63.57617;942.753;;;;
2019/12/26 14:25:55;;;;;;;10.9;4.8;;;;;;;5.77;63.3125;942.7558;;;;
2019/12/26 14:28:32;;;;;;;12.6;5.1;;;;;;;5.7;64.62207;942.7676;;;;
2019/12/26 14:31:00;;;;;;;8.6;3.4;;;;;;;5.59;65.11523;942.7985;;;;
2019/12/26 14:33:31;;;;;;;5.9;3.3;;;;;;;5.57;65.24707;942.8323;;;;
2019/12/26 14:36:02;;;;;;;14.5;6.8;;;;;;;5.71;65.83301;942.7949;;;;
2019/12/26 14:38:37;;;;;;;93.4;47.3;;;;;;;5.82;65.88379;942.8929;;;;
2019/12/26 14:41:08;;;;;;;18.5;11.4;;;;;;;5.87;65.25977;942.8481;;;;
2019/12/26 14:43:57;;;;;;;11.8;7.6;;;;;;;5.92;67.2998;942.8983;;;;
2019/12/26 14:46:27;;;;;;;10.9;6.5;;;;;;;5.89;65.95117;942.905;;;;
2019/12/26 14:49:21;;;;;;;14.9;8.1;;;;;;;5.92;66.2041;942.9093;;;;
2019/12/26 14:51:45;;;;;;;7.8;4.7;;;;;;;5.93;69.53809;942.8606;;;;
2019/12/26 14:54:23;;;;;;;7.6;2.8;;;;;;;5.85;69.37793;942.8934;;;;
2019/12/26 14:56:51;;;;;;;4.3;2.5;;;;;;;5.67;68.99902;942.8978;;;;
2019/12/26 14:59:30;;;;;;;7.8;3.8;;;;;;;5.61;69;942.8553;;;;
2019/12/26 15:02:01;;;;;;;6.8;3.8;;;;;;;5.49;69.45508;942.9102;;;;
2019/12/26 15:04:36;;;;;;;5.9;3.4;;;;;;;5.37;71.63574;942.9608;;;;
2019/12/26 15:07:20;;;;;;;6.8;3.5;;;;;;;5.23;71.28418;942.9263;;;;
2019/12/26 15:09:43;;;;;;;8.3;3.8;;;;;;;5.17;71.64746;942.8994;;;;
2019/12/26 15:12:18;;;;;;;8.7;3.8;;;;;;;5.09;72.55762;942.9186;;;;
2019/12/26 15:14:48;;;;;;;7.6;3.7;;;;;;;5.01;72.2627;942.9141;;;;
2019/12/26 15:17:21;;;;;;;7.3;4.1;;;;;;;4.97;73.02148;942.9177;;;;
2019/12/26 15:19:53;;;;;;;12.4;7.9;;;;;;;4.75;72.72656;942.973;;;;
2019/12/26 15:22:25;;;;;;;15;10.7;;;;;;;4.56;73.58398;942.9228;;;;
2019/12/26 15:24:50;;;;;;;13.3;9.7;;;;;;;4.53;74.34473;943.0014;;;;
2019/12/26 15:29:22;;;;;;;12.4;9.8;;;;;;;4.6;74.52441;942.9386;;;;
2019/12/26 15:30:06;;;;;;;11.7;9.9;;;;;;;4.57;75.64648;942.9592;;;;
2019/12/26 15:32:39;;;;;;;6.1;5;;;;;;;4.59;75.97559;942.8748;;;;
2019/12/26 15:35:10;;;;;;;7.5;5.7;;;;;;;4.57;76.34375;942.9041;;;;
2019/12/26 15:37:43;;;;;;;10.6;7.6;;;;;;;4.49;76.74414;942.863;;;;
2019/12/26 15:40:14;;;;;;;51.1;36.6;;;;;;;4.46;77.65137;942.8643;;;;
2019/12/26 15:42:38;;;;;;;48.6;34.5;;;;;;;4.34;78.35059;942.7882;;;;
2019/12/26 15:45:11;;;;;;;12.8;8.5;;;;;;;4.26;78.71973;942.8311;;;;
2019/12/26 15:47:37;;;;;;;6.3;3.6;;;;;;;4.23;78.64551;942.7659;;;;
2019/12/26 15:50:04;;;;;;;6.3;4.2;;;;;;;4.19;78.91992;942.8861;;;;
2019/12/26 15:52:28;;;;;;;5.5;3.1;;;;;;;4.19;78.50391;942.8491;;;;